Terminal Aerodrome Forecast
Issued by NWS

Home | Current Version | Previous Version | Text Only | Print | Product List | Glossary On
Versions: 1 2 3 4 5 6 7 8 9 10 11 12 13
929
FTUS43 KIND 070520
TAFHUF
TAF
KHUF 070520Z 0706/0806 20006KT P6SM SKC
     FM071100 21007KT P6SM SCT150 BKN250
     FM071500 22010G20KT P6SM SCT120 BKN250
     FM072300 26009KT P6SM FEW040 BKN100=

USA.gov is the U.S. government's official web portal to all federal, state and local government web resources and services.